Fruitland
, Fruitland
Last Weather Update:02/23/2012 7:00:00 PM
Date
ETo
ETc
Rain
Irrigation
Req
Temp
Max
Temp
Min
Temp
Avg
Avg RH
Avg Wind
Avg Solar
inches
inches
incehs
inches
F
F
F
%
%
watts/m2
01/01/2012 0.04" 0.00" 0.00" 0.00" 47.8° 7.1° 22.0° 58.4% 1.3 MPH 110.4w/m2
01/02/2012 0.04" 0.00" 0.00" 0.00" 48.0° 8.9° 24.0° 65.5% 0.1 MPH 110.6w/m2
01/03/2012 0.05" 0.00" 0.00" 0.00" 55.5° 14.8° 31.4° 54.9% 1.6 MPH 108.6w/m2
01/04/2012 0.04" 0.00" 0.00" 0.00" 51.2° 16.2° 29.3° 53.8% 1.7 MPH 104.6w/m2
01/05/2012 0.05" 0.00" 0.00" 0.00" 56.0° 11.1° 28.7° 62.2% 1.4 MPH 113.7w/m2
01/06/2012 0.06" 0.00" 0.00" 0.00" 49.2° 21.1° 32.1° 52.9% 3.0 MPH 115.1w/m2
01/07/2012 0.04" 0.00" 0.00" 0.00" 38.9° 18.2° 29.5° 65.9% 6.8 MPH 84.7w/m2
01/08/2012 0.05" 0.00" 0.00" 0.00" 41.2° 14.8° 25.8° 61.1% 7.1 MPH 116.2w/m2
01/09/2012 0.03" 0.00" 0.00" 0.00" 39.9° 10.5° 21.6° 74.4% 0.4 MPH 91.1w/m2
01/10/2012 0.06" 0.00" 0.00" 0.00" 48.4° 3.6° 26.1° 65.3% 4.8 MPH 125.0w/m2
01/11/2012 0.06" 0.00" 0.00" 0.00" 34.7° 13.3° 24.1° 48.8% 8.5 MPH 123.0w/m2
01/12/2012 0.06" 0.00" 0.00" 0.00" 41.3° 0.0° 20.5° 37.3% 4.4 MPH 123.9w/m2
01/13/2012 0.08" 0.00" 0.00" 0.00" 42.9° 18.9° 29.3° 21.7% 9.2 MPH 112.7w/m2
01/14/2012 0.05" 0.00" 0.00" 0.00" 47.8° 9.1° 26.3° 44.6% 2.5 MPH 116.5w/m2
01/15/2012 0.05" 0.00" 0.00" 0.00" 49.7° 5.5° 22.4° 53.0% 1.6 MPH 105.0w/m2
01/16/2012 0.03" 0.00" 0.00" 0.00" 33.6° 0.4° 18.9° 58.3% 8.5 MPH 80.3w/m2
01/17/2012 0.04" 0.00" 0.00" 0.00" 29.9° F 12.7° 49.2% 3.9 MPH 128.7w/m2
01/18/2012 0.07" 0.00" 0.00" 0.00" 42.6° 22.8° 31.2° 49.8% 13.1 MPH 103.0w/m2
01/19/2012 0.08" 0.00" 0.00" 0.00" 53.0° 29.8° 40.4° 58.6% 11.9 MPH 106.0w/m2
01/20/2012 0.06" 0.00" 0.00" 0.00" 47.3° 28.9° 36.9° 61.1% 7.7 MPH 116.6w/m2
01/21/2012 0.01" 0.00" 0.00" 0.00" 35.7° 25.6° 31.0° 86.1% 1.1 MPH 24.3w/m2
01/22/2012 0.04" 0.00" 0.00" 0.00" 28.3° 9.0° 22.1° 66.5% 10.8 MPH 118.5w/m2
01/23/2012 0.02" 0.00" 0.00" 0.00" 30.0° 0.7° 17.3° 81.6% 1.4 MPH 65.8w/m2
01/24/2012 0.05" 0.00" 0.00" 0.00" 33.9° 13.0° 23.8° 67.4% 7.3 MPH 140.6w/m2
01/25/2012 0.05" 0.00" 0.06" -0.05" 42.2° 13.6° 28.9° 66.9% 7.0 MPH 133.1w/m2
01/26/2012 0.04" 0.00" 0.02" -0.02" 44.2° 13.3° 30.4° 78.2% 7.4 MPH 99.9w/m2
01/27/2012 0.06" 0.00" 0.01" -0.01" 32.7° 12.7° 24.8° 58.4% 9.2 MPH 145.4w/m2
01/28/2012 0.06" 0.00" 0.00" 0.00" 35.4° 11.9° 23.0° 47.7% 8.0 MPH 135.2w/m2
01/29/2012 0.05" 0.00" 0.00" 0.00" 46.6° 13.7° 27.5° 47.7% 2.3 MPH 132.8w/m2
01/30/2012 0.05" 0.00" 0.00" 0.00" 44.4° 8.6° 25.6° 67.8% 2.4 MPH 121.8w/m2
01/31/2012 0.05" 0.00" 0.00" 0.00" 42.8° 6.0° 26.2° 62.8% 1.7 MPH 138.8w/m2
Totals: 1.54" 0.00" 0.09" -0.07" 56.0° F 26.2° 59.0% 5.1 MPH 111.3w/m2